createdAt,value
2018-02-06T00:01:34.040Z,31.75
2018-02-06T00:04:01.532Z,25.25
2018-02-06T00:06:29.798Z,27.10
2018-02-06T00:08:57.523Z,26.08
2018-02-06T00:11:25.014Z,28.10
2018-02-06T00:13:52.491Z,27.20
2018-02-06T00:16:20.745Z,24.05
2018-02-06T00:18:48.226Z,26.12
2018-02-06T00:21:16.495Z,31.55
2018-02-06T00:23:44.781Z,24.52
2018-02-06T00:26:13.061Z,25.83
2018-02-06T00:28:41.338Z,28.27
2018-02-06T00:31:09.569Z,28.38
2018-02-06T00:33:37.058Z,29.42
2018-02-06T00:36:04.549Z,27.30
2018-02-06T00:38:32.059Z,34.47
2018-02-06T00:40:59.518Z,26.95
2018-02-06T00:43:26.986Z,32.35
2018-02-06T00:45:54.511Z,28.95
2018-02-06T00:48:21.974Z,21.20
2018-02-06T00:50:49.469Z,26.48
2018-02-06T00:53:16.954Z,26.08
2018-02-06T00:55:44.462Z,28.70
2018-02-06T00:58:11.937Z,25.83
2018-02-06T01:00:39.410Z,31.12
2018-02-06T01:03:08.421Z,26.85
2018-02-06T01:05:35.933Z,29.00
2018-02-06T01:08:03.411Z,24.85
2018-02-06T01:10:30.917Z,28.33
2018-02-06T01:12:58.385Z,29.52
2018-02-06T01:15:25.857Z,34.72
2018-02-06T01:17:53.355Z,25.92
2018-02-06T01:20:21.601Z,27.83
2018-02-06T01:22:49.100Z,26.77
2018-02-06T01:25:17.318Z,24.30
2018-02-06T01:27:44.817Z,30.05
2018-02-06T01:30:12.323Z,30.10
2018-02-06T01:32:39.790Z,33.33
2018-02-06T01:35:07.323Z,24.55
2018-02-06T01:37:34.811Z,34.53
2018-02-06T01:40:02.317Z,32.92
2018-02-06T01:42:29.781Z,31.50
2018-02-06T01:44:58.071Z,31.05
2018-02-06T01:47:26.300Z,32.60
2018-02-06T01:50:04.831Z,27.62
2018-02-06T01:52:32.289Z,34.35
2018-02-06T01:54:59.787Z,30.05
2018-02-06T01:57:27.309Z,31.37
2018-02-06T01:59:54.774Z,28.40
2018-02-06T02:02:22.258Z,29.77
2018-02-06T02:04:49.744Z,30.70
2018-02-06T02:07:17.258Z,39.35
2018-02-06T02:09:44.719Z,38.13
2018-02-06T02:12:12.966Z,28.67
2018-02-06T02:14:40.480Z,31.27
2018-02-06T02:17:07.945Z,36.38
2018-02-06T02:19:35.461Z,33.90
2018-02-06T02:22:02.956Z,31.80
2018-02-06T02:24:30.426Z,32.65
2018-02-06T02:26:57.918Z,33.13
2018-02-06T02:29:25.410Z,27.92
2018-02-06T02:31:53.658Z,29.40
2018-02-06T02:34:21.134Z,33.70
2018-02-06T02:36:48.630Z,31.40
2018-02-06T02:39:16.106Z,38.63
2018-02-06T04:40:01.402Z,38.65
2018-02-06T04:42:28.920Z,48.38
2018-02-06T04:44:57.169Z,35.85
2018-02-06T04:47:24.638Z,40.20
2018-02-06T04:49:52.894Z,38.05
2018-02-06T04:52:20.362Z,40.45
2018-02-06T04:54:47.891Z,43.20
2018-02-06T04:57:15.353Z,42.10
2018-02-06T04:59:42.862Z,39.85
2018-02-06T05:02:11.095Z,43.55
2018-02-06T05:04:38.620Z,44.10
2018-02-06T05:07:06.073Z,40.55
2018-02-06T05:09:33.549Z,45.42
2018-02-06T05:12:01.034Z,50.92
2018-02-06T05:14:28.517Z,44.15
2018-02-06T05:16:56.006Z,39.88
2018-02-06T05:19:23.470Z,39.47
2018-02-06T05:21:50.969Z,38.67
2018-02-06T05:24:18.477Z,44.47
2018-02-06T05:26:46.741Z,43.47
2018-02-06T05:29:14.198Z,47.30
2018-02-06T05:31:42.444Z,49.58
2018-02-06T05:34:09.930Z,41.37
2018-02-06T05:36:37.394Z,43.25
2018-02-06T05:39:05.670Z,43.60
2018-02-06T05:41:33.159Z,50.00
2018-02-06T05:44:00.645Z,45.53
2018-02-06T05:46:28.130Z,39.58
2018-02-06T05:48:55.631Z,43.13
2018-02-06T05:51:23.106Z,46.17
2018-02-06T05:53:50.586Z,41.60
2018-02-06T05:56:18.065Z,43.47
2018-02-06T05:58:45.547Z,47.97
2018-02-06T06:01:13.820Z,39.33
2018-02-06T06:03:42.072Z,41.17
2018-02-06T06:06:09.561Z,44.58
2018-02-06T06:08:37.796Z,53.08
2018-02-06T06:11:05.306Z,42.30
2018-02-06T06:13:33.529Z,40.72
2018-02-06T06:16:00.995Z,47.40
2018-02-06T06:18:28.498Z,42.05
2018-02-06T06:20:56.001Z,47.10
2018-02-06T06:23:23.546Z,46.00
2018-02-06T06:25:51.042Z,47.78
2018-02-06T06:28:18.549Z,50.30
2018-02-06T06:30:46.021Z,44.80
2018-02-06T06:33:13.518Z,48.40
2018-02-06T06:35:40.971Z,45.15
2018-02-06T06:38:08.441Z,43.13
2018-02-06T06:40:36.007Z,48.60
2018-02-06T06:43:03.470Z,39.63
2018-02-06T06:45:31.758Z,41.70
2018-02-06T06:48:00.008Z,40.65
2018-02-06T06:50:27.539Z,44.25
2018-02-06T06:52:55.042Z,51.03
2018-02-06T06:55:23.303Z,44.60
2018-02-06T06:57:50.779Z,44.22
2018-02-06T07:00:19.100Z,43.10
2018-02-06T07:02:46.577Z,46.83
2018-02-06T07:05:14.038Z,44.40
2018-02-06T07:07:41.581Z,49.67
2018-02-06T07:10:09.105Z,45.72
2018-02-06T07:12:36.598Z,47.70
2018-02-06T07:15:04.086Z,44.35
2018-02-06T07:17:31.592Z,50.15
2018-02-06T07:19:59.060Z,47.53
2018-02-06T07:22:26.542Z,40.85
2018-02-06T07:24:54.022Z,48.72
2018-02-06T07:27:21.536Z,46.30
2018-02-06T07:29:49.037Z,44.17
2018-02-06T07:32:16.529Z,53.35
2018-02-06T07:34:44.829Z,47.70
2018-02-06T07:37:12.294Z,41.35
2018-02-06T07:39:39.801Z,55.22
2018-02-06T07:42:08.039Z,52.03
2018-02-06T07:44:35.562Z,44.17
2018-02-06T07:47:03.032Z,46.67
2018-02-06T07:49:30.535Z,46.70
2018-02-06T07:51:58.034Z,50.70
2018-02-06T07:54:26.306Z,48.22
2018-02-06T07:56:54.564Z,51.50
2018-02-06T07:59:22.844Z,54.33
2018-02-06T08:01:50.330Z,50.70
2018-02-06T08:04:18.565Z,46.05
2018-02-06T08:06:46.110Z,52.75
2018-02-06T08:09:13.575Z,50.53
2018-02-06T08:11:41.062Z,57.08
2018-02-06T08:14:09.349Z,46.88
2018-02-06T08:16:37.617Z,55.60
2018-02-06T08:19:05.115Z,53.35
2018-02-06T08:21:32.620Z,54.65
2018-02-06T08:24:00.279Z,61.03
2018-02-06T08:26:27.734Z,52.88
2018-02-06T08:28:55.272Z,51.45
2018-02-06T08:31:22.745Z,52.30
2018-02-06T08:33:50.210Z,53.97
2018-02-06T08:36:17.722Z,63.53
2018-02-06T08:38:45.203Z,50.20
2018-02-06T08:41:12.697Z,51.17
2018-02-06T08:43:40.192Z,55.75
2018-02-06T08:46:07.706Z,59.38
2018-02-06T08:48:35.221Z,65.47
2018-02-06T08:51:02.722Z,58.60
2018-02-06T08:53:31.739Z,60.50
2018-02-06T08:56:00.019Z,56.00
2018-02-06T08:58:28.258Z,59.75
2018-02-06T09:00:55.742Z,51.25
2018-02-06T09:03:23.247Z,59.65
2018-02-06T09:05:50.750Z,58.30
2018-02-06T09:08:18.275Z,56.15
2018-02-06T09:10:45.733Z,51.95
2018-02-06T09:13:13.251Z,60.42
2018-02-06T09:15:41.518Z,56.92
2018-02-06T09:18:08.980Z,59.72
2018-02-06T09:20:37.233Z,64.00
2018-02-06T09:23:04.713Z,49.78
2018-02-06T09:25:32.251Z,57.53
2018-02-06T09:27:59.735Z,58.75
2018-02-06T09:30:28.023Z,54.72
2018-02-06T09:32:56.263Z,60.47
2018-02-06T09:35:23.746Z,60.20
2018-02-06T09:37:52.015Z,56.53
2018-02-06T09:40:20.263Z,54.13
2018-02-06T09:42:47.765Z,60.70
2018-02-06T09:45:15.263Z,59.90
2018-02-06T09:47:42.769Z,50.10
2018-02-06T09:50:11.019Z,54.72
2018-02-06T09:52:38.496Z,59.88
2018-02-06T09:55:05.982Z,51.30
2018-02-06T09:57:33.495Z,57.70
2018-02-06T10:00:00.986Z,56.92
2018-02-06T10:02:29.229Z,52.47
2018-02-06T10:04:56.727Z,57.05
2018-02-06T10:07:24.971Z,59.30
2018-02-06T10:09:52.475Z,62.13
2018-02-06T10:12:19.970Z,62.40
2018-02-06T10:14:47.459Z,52.85
2018-02-06T10:17:14.964Z,53.47
2018-02-06T10:19:43.198Z,53.72
2018-02-06T10:22:10.673Z,62.83
2018-02-06T10:24:38.979Z,65.25
2018-02-06T10:27:06.431Z,57.90
2018-02-06T10:29:33.942Z,59.75
2018-02-06T10:32:01.461Z,59.03
2018-02-06T10:34:28.931Z,53.00
2018-02-06T10:36:56.430Z,55.40
2018-02-06T10:39:23.927Z,59.50
2018-02-06T10:41:51.398Z,54.30
2018-02-06T10:44:18.910Z,55.05
2018-02-06T10:46:46.386Z,53.30
2018-02-06T10:49:14.670Z,59.58
2018-02-06T10:51:42.171Z,49.33
2018-02-06T10:54:09.685Z,51.95
2018-02-06T10:56:37.160Z,52.90
2018-02-06T10:59:04.681Z,52.35
2018-02-06T11:01:32.158Z,56.20
2018-02-06T11:04:00.411Z,63.47
2018-02-06T11:06:27.928Z,54.45
2018-02-06T11:08:55.418Z,53.65
2018-02-06T11:11:22.950Z,49.30
2018-02-06T11:13:50.450Z,56.67
2018-02-06T11:16:17.930Z,52.00
2018-02-06T11:18:45.430Z,54.45
2018-02-06T11:21:12.886Z,51.20
2018-02-06T11:23:40.427Z,50.80
2018-02-06T11:26:07.883Z,51.15
2018-02-06T11:28:35.404Z,47.70
2018-02-06T11:31:02.891Z,56.85
2018-02-06T11:33:30.415Z,49.78
2018-02-06T11:35:57.899Z,48.78
2018-02-06T11:38:26.164Z,46.03
2018-02-06T11:40:54.405Z,48.25
2018-02-06T11:43:21.910Z,49.90
2018-02-06T11:45:50.195Z,55.42
2018-02-06T11:48:17.686Z,45.40
2018-02-06T11:50:45.173Z,56.25
2018-02-06T11:53:12.662Z,54.95
2018-02-06T11:55:40.922Z,47.72
2018-02-06T11:58:08.439Z,52.17
2018-02-06T12:00:35.895Z,48.03
2018-02-06T12:03:03.376Z,44.97
2018-02-06T12:05:30.882Z,56.05
2018-02-06T12:07:58.414Z,53.00
2018-02-06T12:10:25.912Z,52.62
2018-02-06T12:12:54.189Z,53.28
2018-02-06T12:15:21.695Z,57.90
2018-02-06T12:17:49.975Z,56.90
2018-02-06T12:20:17.490Z,56.50
2018-02-06T12:22:44.990Z,50.33
2018-02-06T12:25:12.481Z,55.60
2018-02-06T12:27:39.990Z,52.03
2018-02-06T12:30:08.318Z,53.00
2018-02-06T12:32:36.557Z,57.15
2018-02-06T12:35:04.058Z,47.35
2018-02-06T12:37:31.539Z,53.05
2018-02-06T12:39:59.002Z,50.97
2018-02-06T12:42:26.521Z,51.15
2018-02-06T12:44:54.742Z,55.85
2018-02-06T12:47:22.260Z,51.92
2018-02-06T12:49:50.529Z,48.50
2018-02-06T12:52:18.805Z,49.08
2018-02-06T12:54:46.370Z,53.25
2018-02-06T12:57:14.622Z,53.45
2018-02-06T12:59:42.118Z,55.80
2018-02-06T13:02:10.374Z,51.47
2018-02-06T13:04:38.785Z,50.47
2018-02-06T13:07:06.269Z,57.00
2018-02-06T13:09:33.837Z,50.00
2018-02-06T13:12:01.886Z,51.03
2018-02-06T13:14:29.387Z,50.03
2018-02-06T13:16:56.898Z,50.72
2018-02-06T13:19:24.430Z,54.25
2018-02-06T13:21:52.681Z,58.25
2018-02-06T13:24:20.178Z,48.65
2018-02-06T13:26:48.430Z,54.30
2018-02-06T13:29:15.896Z,51.67
2018-02-06T13:31:44.157Z,54.03
2018-02-06T13:34:12.431Z,57.38
2018-02-06T13:36:39.934Z,46.65
2018-02-06T13:39:07.437Z,54.65
2018-02-06T13:41:34.942Z,53.08
2018-02-06T13:44:03.165Z,50.78
2018-02-06T13:46:30.687Z,58.53
2018-02-06T13:48:58.187Z,56.13
2018-02-06T13:51:25.683Z,56.80
2018-02-06T13:53:53.943Z,51.50
2018-02-06T13:56:21.453Z,57.22
2018-02-06T13:58:48.961Z,57.47
2018-02-06T14:01:16.435Z,54.85
2018-02-06T14:03:44.759Z,54.20
2018-02-06T14:06:12.229Z,49.08
2018-02-06T14:08:39.757Z,48.67
2018-02-06T14:11:07.219Z,53.53
2018-02-06T14:13:34.730Z,49.08
2018-02-06T14:16:02.195Z,55.42
2018-02-06T14:18:29.661Z,51.10
2018-02-06T14:20:57.907Z,47.85
2018-02-06T14:23:25.392Z,46.20
2018-02-06T14:25:52.894Z,47.55
2018-02-06T14:28:20.384Z,50.63
2018-02-06T14:30:47.927Z,49.00
2018-02-06T14:33:15.431Z,58.40
2018-02-06T14:35:42.894Z,48.08
2018-02-06T14:38:16.119Z,50.65
2018-02-06T14:40:43.591Z,44.92
2018-02-06T14:43:11.094Z,48.10
2018-02-06T14:45:38.574Z,46.22
2018-02-06T14:48:06.109Z,51.17
2018-02-06T14:50:33.580Z,49.30
2018-02-06T14:53:01.813Z,51.58
2018-02-06T14:55:29.360Z,47.58
2018-02-06T14:57:56.819Z,49.88
2018-02-06T15:00:24.327Z,47.13
2018-02-06T15:02:51.788Z,63.10
2018-02-06T15:05:20.066Z,48.20
2018-02-06T15:07:48.323Z,46.30
2018-02-06T15:10:15.777Z,47.73
2018-02-06T15:12:43.302Z,45.42
2018-02-06T15:15:10.768Z,44.88
2018-02-06T15:17:38.299Z,62.62
2018-02-06T15:20:05.768Z,46.75
2018-02-06T15:22:33.245Z,49.15
2018-02-06T15:25:00.764Z,52.60
2018-02-06T15:27:29.022Z,38.80
2018-02-06T15:29:57.257Z,47.30
2018-02-06T15:32:24.781Z,52.95
2018-02-06T15:34:52.306Z,52.05
2018-02-06T15:37:19.847Z,50.20
2018-02-06T15:39:47.338Z,43.05
2018-02-06T15:42:15.637Z,43.90
2018-02-06T15:44:43.921Z,39.10
2018-02-06T15:47:11.418Z,41.72
2018-02-06T15:49:38.930Z,46.92
2018-02-06T15:52:07.176Z,47.00
2018-02-06T15:54:34.686Z,38.00
2018-02-06T15:57:02.162Z,45.15
2018-02-06T15:59:29.693Z,40.58
2018-02-06T16:01:57.190Z,44.95
2018-02-06T16:04:24.672Z,43.55
2018-02-06T16:06:52.172Z,43.22
2018-02-06T16:09:19.678Z,46.08
2018-02-06T16:11:47.174Z,43.63
2018-02-06T16:14:14.681Z,48.08
2018-02-06T16:16:42.170Z,40.55
2018-02-06T16:19:09.659Z,46.65
2018-02-06T16:21:37.146Z,44.42
2018-02-06T16:24:04.659Z,45.22
2018-02-06T16:26:32.929Z,44.80
2018-02-06T16:29:01.214Z,46.50
2018-02-06T16:31:29.481Z,47.60
2018-02-06T16:33:56.961Z,42.47
2018-02-06T16:36:24.467Z,43.97
2018-02-06T16:38:51.959Z,42.42
2018-02-06T16:41:19.430Z,46.03
2018-02-06T16:43:47.694Z,40.88
2018-02-06T16:46:15.945Z,38.88
2018-02-06T16:48:43.465Z,44.28
2018-02-06T16:51:10.951Z,44.33
2018-02-06T16:53:38.485Z,39.80
2018-02-06T16:56:05.958Z,38.53
2018-02-06T16:58:33.465Z,36.80
2018-02-06T17:01:00.999Z,42.08
2018-02-06T17:03:28.498Z,38.42
2018-02-06T17:05:56.753Z,40.80
2018-02-06T17:08:24.267Z,34.05
2018-02-06T17:10:51.784Z,40.10
2018-02-06T17:13:20.039Z,36.42
2018-02-06T17:15:47.548Z,39.33
2018-02-06T17:18:15.043Z,40.75
2018-02-06T17:20:42.555Z,35.67
2018-02-06T17:23:10.075Z,40.55
2018-02-06T17:25:37.622Z,38.67
2018-02-06T17:28:05.138Z,35.67
2018-02-06T17:30:32.627Z,38.63
2018-02-06T17:33:00.112Z,37.28
2018-02-06T17:35:27.614Z,37.58
2018-02-06T17:37:55.119Z,36.40
2018-02-06T17:40:22.646Z,37.60
2018-02-06T17:42:50.887Z,34.97
2018-02-06T17:45:19.174Z,39.22
2018-02-06T17:47:47.438Z,37.42
2018-02-06T17:50:15.703Z,32.83
2018-02-06T17:52:43.210Z,38.70
2018-02-06T17:55:10.710Z,43.75
2018-02-06T17:57:38.219Z,41.45
2018-02-06T18:00:05.694Z,41.70
2018-02-06T18:02:33.203Z,34.20
2018-02-06T18:05:00.710Z,30.20
2018-02-06T18:07:28.172Z,36.17
2018-02-06T18:09:55.671Z,32.10
2018-02-06T18:12:23.152Z,36.95
2018-02-06T18:14:51.460Z,34.35
2018-02-06T18:17:18.946Z,43.22
2018-02-06T18:19:46.469Z,39.40
2018-02-06T18:22:13.989Z,34.47
2018-02-06T18:24:41.503Z,38.15
2018-02-06T18:27:09.122Z,41.88
2018-02-06T18:29:37.363Z,38.17
2018-02-06T18:32:04.934Z,38.80
2018-02-06T18:34:32.418Z,40.35
2018-02-06T18:37:00.677Z,36.47
2018-02-06T18:39:28.202Z,41.10
2018-02-06T18:41:55.679Z,39.03
2018-02-06T18:44:23.203Z,36.45
2018-02-06T18:46:50.783Z,36.15
2018-02-06T18:49:18.298Z,32.38
2018-02-06T18:51:46.574Z,33.50
2018-02-06T18:54:14.818Z,37.00
2018-02-06T18:56:42.321Z,38.65
2018-02-06T18:59:10.584Z,40.25
2018-02-06T19:01:39.571Z,34.50
2018-02-06T19:04:07.820Z,37.70
2018-02-06T19:06:35.337Z,35.72
2018-02-06T19:09:02.877Z,37.10
2018-02-06T19:11:31.183Z,41.17
2018-02-06T19:13:58.674Z,35.15
2018-02-06T19:16:26.204Z,39.00
2018-02-06T19:18:53.718Z,36.88
2018-02-06T19:21:21.198Z,38.30
2018-02-06T19:23:48.735Z,42.97
2018-02-06T19:26:17.043Z,41.63
2018-02-06T19:28:44.560Z,38.25
2018-02-06T19:31:12.079Z,40.97
2018-02-06T19:33:39.596Z,35.45
2018-02-06T19:36:07.888Z,37.53
2018-02-06T19:38:36.165Z,36.17
2018-02-06T19:41:04.390Z,37.95
2018-02-06T19:43:31.940Z,31.05
2018-02-06T19:45:59.407Z,36.45
2018-02-06T19:48:26.923Z,39.40
2018-02-06T19:50:54.425Z,41.37
2018-02-06T19:53:21.986Z,40.70
2018-02-06T19:55:49.487Z,42.47
2018-02-06T19:58:17.718Z,38.70
2018-02-06T20:00:45.231Z,37.85
2018-02-06T20:03:13.534Z,44.20
2018-02-06T20:05:41.022Z,36.72
2018-02-06T20:08:08.546Z,41.13
2018-02-06T20:10:36.067Z,42.90
2018-02-06T20:13:04.305Z,39.38
2018-02-06T20:15:31.842Z,41.15
2018-02-06T20:17:59.325Z,40.33
2018-02-06T20:20:26.808Z,39.70
2018-02-06T20:22:54.322Z,42.22
2018-02-06T20:25:21.809Z,35.35
2018-02-06T20:27:49.340Z,40.05
2018-02-06T20:30:16.844Z,44.05
2018-02-06T20:32:44.381Z,48.08
2018-02-06T20:35:11.890Z,46.20
2018-02-06T20:37:39.406Z,51.17
2018-02-06T20:40:06.890Z,48.47
2018-02-06T20:42:34.431Z,44.38
2018-02-06T20:45:01.906Z,40.10
2018-02-06T20:47:29.401Z,39.63
2018-02-06T20:49:56.903Z,38.72
2018-02-06T20:52:24.383Z,38.30
2018-02-06T20:54:51.897Z,41.63
2018-02-06T20:57:19.427Z,42.83
2018-02-06T20:59:46.935Z,39.90
2018-02-06T21:02:14.413Z,43.33
2018-02-06T21:04:41.904Z,40.72
2018-02-06T21:07:10.173Z,39.67
2018-02-06T21:09:38.436Z,38.97
2018-02-06T21:12:06.718Z,41.97
2018-02-06T21:14:34.974Z,44.92
2018-02-06T21:17:02.475Z,38.58
2018-02-06T21:19:29.970Z,38.15
2018-02-06T21:21:57.467Z,41.22
2018-02-06T21:24:24.979Z,39.17
2018-02-06T21:26:52.487Z,41.63
2018-02-06T21:29:20.754Z,35.80
2018-02-06T21:31:48.224Z,40.83
2018-02-06T21:34:16.515Z,36.00
2018-02-06T21:36:44.016Z,45.60
2018-02-06T21:39:11.523Z,42.20
2018-02-06T21:41:39.763Z,41.33
2018-02-06T21:44:07.242Z,44.53
2018-02-06T21:46:35.522Z,41.42
2018-02-06T21:49:02.992Z,39.22
2018-02-06T21:51:31.244Z,39.45
2018-02-06T21:53:58.728Z,43.87
2018-02-06T21:56:27.003Z,40.95
2018-02-06T21:58:55.231Z,41.20
2018-02-06T22:01:22.750Z,39.60
2018-02-06T22:03:50.999Z,38.08
2018-02-06T22:06:18.482Z,36.50
2018-02-06T22:08:45.991Z,41.08
2018-02-06T22:11:13.461Z,49.20
2018-02-06T22:13:40.978Z,41.15
2018-02-06T22:16:08.493Z,35.05
2018-02-06T22:18:35.989Z,35.00
2018-02-06T22:21:03.488Z,42.08
2018-02-06T22:23:30.978Z,38.30
2018-02-06T22:25:58.639Z,35.03
2018-02-06T22:28:26.133Z,46.65
2018-02-06T22:30:53.646Z,41.60
2018-02-06T22:33:21.110Z,38.20
2018-02-06T22:35:49.378Z,33.17
2018-02-06T22:38:16.885Z,41.45
2018-02-06T22:40:44.370Z,38.85
2018-02-06T22:43:11.905Z,35.90
2018-02-06T22:45:40.122Z,40.15
2018-02-06T22:48:07.752Z,39.42
2018-02-06T22:50:35.216Z,41.70
2018-02-06T22:53:02.719Z,41.35
2018-02-06T22:55:30.959Z,38.15
2018-02-06T22:57:58.429Z,43.47
2018-02-06T23:00:25.954Z,43.75
2018-02-06T23:02:53.432Z,48.47
2018-02-06T23:05:20.914Z,40.38
2018-02-06T23:07:48.398Z,44.75
2018-02-06T23:10:16.658Z,43.42
2018-02-06T23:12:44.123Z,41.85
2018-02-06T23:15:12.399Z,39.75
2018-02-06T23:17:39.904Z,39.67
2018-02-06T23:20:07.954Z,46.75
2018-02-06T23:22:36.221Z,37.25
2018-02-06T23:25:04.470Z,40.33
2018-02-06T23:27:32.008Z,42.28
2018-02-06T23:29:59.487Z,54.28
2018-02-06T23:32:26.991Z,43.85
2018-02-06T23:34:54.478Z,48.83
2018-02-06T23:37:21.949Z,40.55
2018-02-06T23:39:49.470Z,48.08
2018-02-06T23:42:17.010Z,45.80
2018-02-06T23:44:44.469Z,43.90
2018-02-06T23:47:12.738Z,49.30
2018-02-06T23:49:40.229Z,41.58
2018-02-06T23:52:07.735Z,61.25
2018-02-06T23:54:35.224Z,42.42
2018-02-06T23:57:03.465Z,45.08
2018-02-06T23:59:30.970Z,44.13
